MJONE EGGP-EGCC
Flight info
| Callsign | MJONE |
|---|---|
| Flight time | 0h 10m |
| Altitude | 3500 |
| Route | NANTI |
| Aircraft | PC24/M-SBDGIRWY/LB2 |
Departure
| Time | 2026-05-05 15:56 |
|---|---|
| Airport | Liverpool John Lennon Airport (EGGP) |
Arrival
| Time | 2026-05-05 16:07 |
|---|---|
| Airport | Manchester Airport (EGCC) |
| Time | Latitude | Longitude | Altitude | Speed | Heading |
|---|---|---|---|---|---|
| 2026-05-05 15:47 | 53.33721 | -2.83939 | 65 ft | 0 kts | 175° |
| 2026-05-05 15:51 | 53.33699 | -2.83935 | 64 ft | 8 kts | 179° |
| 2026-05-05 15:51 | 53.33692 | -2.83935 | 66 ft | 0 kts | 180° |
| 2026-05-05 15:51 | 53.33663 | -2.83933 | 67 ft | 12 kts | 174° |
| 2026-05-05 15:51 | 53.33585 | -2.83910 | 68 ft | 9 kts | 134° |
| 2026-05-05 15:52 | 53.33583 | -2.83821 | 64 ft | 7 kts | 82° |
| 2026-05-05 15:52 | 53.33588 | -2.83707 | 69 ft | 13 kts | 85° |
| 2026-05-05 15:52 | 53.33538 | -2.83632 | 71 ft | 10 kts | 175° |
| 2026-05-05 15:52 | 53.33515 | -2.83630 | 72 ft | 0 kts | 177° |
| 2026-05-05 15:54 | 53.33510 | -2.83630 | 66 ft | 0 kts | 177° |
| 2026-05-05 15:55 | 53.33491 | -2.83625 | 72 ft | 10 kts | 172° |
| 2026-05-05 15:55 | 53.33424 | -2.83656 | 73 ft | 8 kts | 261° |
| 2026-05-05 15:55 | 53.33424 | -2.83664 | 73 ft | 0 kts | 263° |
| 2026-05-05 15:56 | 53.33401 | -2.84175 | 72 ft | 87 kts | 266° |
| 2026-05-05 15:56 | 53.33337 | -2.85567 | 202 ft | 144 kts | 265° |
| 2026-05-05 15:56 | 53.33241 | -2.87357 | 940 ft | 169 kts | 269° |
| 2026-05-05 15:57 | 53.33119 | -2.89539 | 1619 ft | 203 kts | 269° |
| 2026-05-05 15:57 | 53.32929 | -2.91838 | 2182 ft | 206 kts | 256° |
| 2026-05-05 15:57 | 53.32067 | -2.93850 | 2700 ft | 223 kts | 222° |
| 2026-05-05 15:57 | 53.30617 | -2.94829 | 3002 ft | 232 kts | 186° |
| 2026-05-05 15:58 | 53.29046 | -2.94228 | 3004 ft | 235 kts | 148° |
| 2026-05-05 15:58 | 53.27983 | -2.92286 | 2999 ft | 225 kts | 111° |
| 2026-05-05 15:58 | 53.27654 | -2.89802 | 3006 ft | 218 kts | 95° |
| 2026-05-05 15:58 | 53.27302 | -2.87327 | 3008 ft | 220 kts | 108° |
| 2026-05-05 15:59 | 53.26541 | -2.85102 | 3010 ft | 221 kts | 121° |
| 2026-05-05 15:59 | 53.25642 | -2.82988 | 3008 ft | 225 kts | 126° |
| 2026-05-05 15:59 | 53.24987 | -2.81649 | 3011 ft | 225 kts | 129° |
| 2026-05-05 15:59 | 53.23956 | -2.79682 | 2988 ft | 224 kts | 129° |
| 2026-05-05 16:00 | 53.23197 | -2.77475 | 2977 ft | 219 kts | 107° |
| 2026-05-05 16:00 | 53.22714 | -2.75067 | 2980 ft | 219 kts | 105° |
| 2026-05-05 16:00 | 53.22246 | -2.72636 | 2988 ft | 222 kts | 104° |
| 2026-05-05 16:00 | 53.21764 | -2.70170 | 2987 ft | 223 kts | 105° |
| 2026-05-05 16:01 | 53.21296 | -2.67717 | 2988 ft | 221 kts | 105° |
| 2026-05-05 16:01 | 53.20840 | -2.65268 | 2982 ft | 221 kts | 104° |
| 2026-05-05 16:01 | 53.20387 | -2.62816 | 2977 ft | 219 kts | 103° |
| 2026-05-05 16:01 | 53.20347 | -2.60337 | 2961 ft | 213 kts | 73° |
| 2026-05-05 16:02 | 53.20838 | -2.58021 | 2980 ft | 212 kts | 65° |
| 2026-05-05 16:02 | 53.21532 | -2.55887 | 2981 ft | 208 kts | 51° |
| 2026-05-05 16:02 | 53.22427 | -2.54029 | 2983 ft | 204 kts | 49° |
| 2026-05-05 16:02 | 53.23315 | -2.52195 | 2976 ft | 202 kts | 49° |
| 2026-05-05 16:03 | 53.24196 | -2.50383 | 2966 ft | 201 kts | 49° |
| 2026-05-05 16:03 | 53.25054 | -2.48624 | 2978 ft | 190 kts | 49° |
| 2026-05-05 16:03 | 53.25882 | -2.46944 | 2972 ft | 185 kts | 49° |
| 2026-05-05 16:03 | 53.26698 | -2.45273 | 2814 ft | 187 kts | 49° |
| 2026-05-05 16:04 | 53.27501 | -2.43620 | 2555 ft | 179 kts | 49° |
| 2026-05-05 16:04 | 53.28264 | -2.42072 | 2310 ft | 170 kts | 48° |
| 2026-05-05 16:04 | 53.28967 | -2.40623 | 2103 ft | 143 kts | 48° |
| 2026-05-05 16:04 | 53.29554 | -2.39424 | 1897 ft | 128 kts | 47° |
| 2026-05-05 16:05 | 53.30097 | -2.38313 | 1722 ft | 123 kts | 49° |
| 2026-05-05 16:05 | 53.30638 | -2.37202 | 1537 ft | 123 kts | 48° |
| 2026-05-05 16:05 | 53.31176 | -2.36096 | 1394 ft | 123 kts | 48° |
| 2026-05-05 16:05 | 53.31715 | -2.34989 | 1244 ft | 124 kts | 47° |
| 2026-05-05 16:06 | 53.32292 | -2.33908 | 1049 ft | 127 kts | 45° |
| 2026-05-05 16:06 | 53.32862 | -2.32717 | 857 ft | 134 kts | 51° |
| 2026-05-05 16:06 | 53.33431 | -2.31483 | 673 ft | 133 kts | 49° |
| 2026-05-05 16:06 | 53.34032 | -2.30276 | 487 ft | 134 kts | 48° |
| 2026-05-05 16:07 | 53.34615 | -2.29069 | 326 ft | 132 kts | 49° |
| 2026-05-05 16:07 | 53.35170 | -2.27910 | 232 ft | 118 kts | 50° |
| 2026-05-05 16:07 | 53.35512 | -2.27210 | 245 ft | 35 kts | 51° |
| 2026-05-05 16:07 | 53.35620 | -2.27081 | 253 ft | 11 kts | 325° |
| 2026-05-05 16:08 | 53.35681 | -2.27162 | 251 ft | 12 kts | 320° |
| 2026-05-05 16:08 | 53.35694 | -2.27181 | 251 ft | 0 kts | 320° |
| 2026-05-05 16:09 | 53.35708 | -2.27209 | 251 ft | 11 kts | 297° |
| 2026-05-05 16:09 | 53.35680 | -2.27331 | 250 ft | 12 kts | 231° |
| 2026-05-05 16:10 | 53.35613 | -2.27468 | 241 ft | 19 kts | 231° |
| 2026-05-05 16:10 | 53.35536 | -2.27627 | 237 ft | 10 kts | 231° |
| 2026-05-05 16:10 | 53.35528 | -2.27644 | 236 ft | 0 kts | 231° |
| 2026-05-05 16:11 | 53.35461 | -2.27875 | 235 ft | 13 kts | 283° |
| 2026-05-05 16:12 | 53.35542 | -2.27910 | 232 ft | 18 kts | 6° |
| 2026-05-05 16:12 | 53.35533 | -2.28079 | 230 ft | 17 kts | 220° |
| 2026-05-05 16:13 | 53.35592 | -2.28145 | 233 ft | 1 kts | 340° |
| 2026-05-05 16:13 | 53.35594 | -2.28143 | 233 ft | 1 kts | 28° |
| 2026-05-05 16:13 | 53.35591 | -2.28137 | 232 ft | 0 kts | 144° |